Time;durP1;ratioP1;P1;durP2;ratioP2;P2;SDS_P1;SDS_P2;PMS_P1;PMS_P2;Temp;Humidity;BMP_temperature;BMP_pressure;BME280_temperature;BME280_humidity;BME280_pressure;Samples;Min_cycle;Max_cycle;Signal;HPM_P1;HPM_P2
2023/07/06 00:00:39;;;;;;;2.37;2.17;;;20.70;39.70;;;;;;20794;6821;117196;-78
2023/07/06 00:03:04;;;;;;;3.63;2.77;;;20.30;40.10;;;;;;20763;6821;117563;-79
2023/07/06 00:05:30;;;;;;;2.90;2.70;;;19.90;40.40;;;;;;20539;6821;302140;-78
2023/07/06 00:07:56;;;;;;;2.50;2.30;;;20.00;41.10;;;;;;20773;6821;123346;-79
2023/07/06 00:10:22;;;;;;;2.90;2.50;;;19.80;41.00;;;;;;20575;6821;278090;-78
2023/07/06 00:12:47;;;;;;;2.87;2.67;;;19.90;41.40;;;;;;20558;6821;325836;-79
2023/07/06 00:15:12;;;;;;;3.10;2.90;;;20.10;41.40;;;;;;20549;6821;282939;-79
2023/07/06 00:17:39;;;;;;;3.03;2.83;;;20.40;41.50;;;;;;20571;6821;324091;-79
2023/07/06 00:20:07;;;;;;;2.97;2.78;;;20.40;41.50;;;;;;20562;6821;310027;-78
2023/07/06 00:22:30;;;;;;;2.95;2.75;;;20.40;41.30;;;;;;20554;6821;282745;-79
2023/07/06 00:24:57;;;;;;;2.72;2.33;;;20.10;40.80;;;;;;20792;6821;117918;-78
2023/07/06 00:27:22;;;;;;;2.40;2.20;;;20.10;41.30;;;;;;20784;6821;119938;-79
2023/07/06 00:29:56;;;;;;;2.60;2.37;;;19.30;42.70;;;;;;20813;6821;116130;-79
2023/07/06 00:32:28;;;;;;;3.03;2.93;;;19.30;42.10;;;;;;20592;6821;282970;-79
2023/07/06 00:34:54;;;;;;;3.00;2.80;;;19.40;42.80;;;;;;20601;6819;308200;-79
2023/07/06 00:37:21;;;;;;;2.87;2.53;;;19.70;42.70;;;;;;20792;6820;121539;-79
2023/07/06 00:39:45;;;;;;;3.05;2.78;;;19.60;42.50;;;;;;20600;6820;277734;-79
2023/07/06 00:42:10;;;;;;;3.00;2.80;;;19.60;42.70;;;;;;20607;6820;340704;-79
2023/07/06 00:44:46;;;;;;;3.10;2.22;;;19.90;42.30;;;;;;20801;6820;115959;-79
2023/07/06 00:47:12;;;;;;;2.33;2.23;;;19.70;42.30;;;;;;20787;6820;117090;-79
2023/07/06 00:49:39;;;;;;;2.90;2.70;;;19.40;42.60;;;;;;20598;6820;284294;-80
2023/07/06 00:52:04;;;;;;;2.80;2.60;;;19.40;42.60;;;;;;20593;6820;295237;-79
2023/07/06 00:54:29;;;;;;;2.60;2.50;;;19.70;42.20;;;;;;20596;6820;310062;-79
2023/07/06 00:56:55;;;;;;;2.80;2.60;;;19.90;41.50;;;;;;20599;6821;293186;-78
2023/07/06 00:59:21;;;;;;;10.82;10.02;;;20.00;41.00;;;;;;20795;6821;119336;-79
2023/07/06 01:01:46;;;;;;;5.13;4.60;;;19.80;41.20;;;;;;20799;6821;117779;-79
2023/07/06 01:04:11;;;;;;;3.05;2.85;;;19.40;41.60;;;;;;20818;6821;119202;-79
2023/07/06 01:06:37;;;;;;;2.95;2.40;;;19.10;42.00;;;;;;20797;6821;124269;-79
2023/07/06 01:09:04;;;;;;;2.92;2.72;;;18.80;42.30;;;;;;20571;6821;307961;-79
2023/07/06 01:11:28;;;;;;;2.25;2.15;;;19.00;42.70;;;;;;20804;6821;117751;-79
2023/07/06 01:13:54;;;;;;;2.60;2.37;;;19.00;42.50;;;;;;20801;6821;116493;-79
2023/07/06 01:16:30;;;;;;;2.80;2.60;;;18.80;42.60;;;;;;20804;6821;117112;-79
2023/07/06 01:18:58;;;;;;;3.10;2.90;;;18.50;42.70;;;;;;20583;6821;294585;-78
2023/07/06 01:21:40;;;;;;;3.65;3.10;;;18.70;43.20;;;;;;20570;6821;340178;-79
2023/07/06 01:24:17;;;;;;;2.47;2.33;;;19.10;43.00;;;;;;20794;6821;117212;-79
2023/07/06 01:27:07;;;;;;;3.83;2.70;;;18.90;42.70;;;;;;20553;6821;281871;-79
2023/07/06 01:29:52;;;;;;;2.30;2.10;;;19.00;43.10;;;;;;20800;6821;117331;-79
2023/07/06 01:32:22;;;;;;;3.40;2.80;;;18.80;43.30;;;;;;20573;6821;278116;-79
2023/07/06 01:34:54;;;;;;;3.10;2.90;;;18.80;43.30;;;;;;20580;6821;305702;-79
2023/07/06 01:37:32;;;;;;;2.77;2.57;;;19.10;43.00;;;;;;20736;6821;120234;-79
2023/07/06 01:39:59;;;;;;;3.00;2.83;;;18.90;42.80;;;;;;20576;6821;313129;-79
2023/07/06 01:42:31;;;;;;;2.53;2.33;;;18.70;42.90;;;;;;20801;6821;117039;-79
2023/07/06 01:44:57;;;;;;;2.57;2.37;;;18.70;42.90;;;;;;20797;6821;119178;-79
2023/07/06 01:47:22;;;;;;;2.90;2.70;;;18.40;43.20;;;;;;20535;6819;329538;-79
2023/07/06 01:49:48;;;;;;;2.87;2.77;;;18.50;43.80;;;;;;20597;6820;306408;-79
2023/07/06 01:52:13;;;;;;;2.97;2.40;;;18.70;43.50;;;;;;20797;6820;117543;-79
2023/07/06 01:54:39;;;;;;;2.97;2.80;;;18.60;43.40;;;;;;20573;6820;307533;-79
2023/07/06 01:57:05;;;;;;;2.93;2.53;;;18.60;43.40;;;;;;20742;6820;117372;-79
2023/07/06 01:59:30;;;;;;;2.75;2.40;;;18.50;43.40;;;;;;20779;6820;117102;-79
2023/07/06 02:02:00;;;;;;;2.95;2.75;;;18.20;43.80;;;;;;20574;6820;278356;-79
2023/07/06 02:04:24;;;;;;;3.00;2.80;;;18.30;44.20;;;;;;20585;6820;306588;-79
2023/07/06 02:06:53;;;;;;;3.33;3.03;;;18.80;43.50;;;;;;20582;6821;284723;-79
2023/07/06 02:09:18;;;;;;;2.67;2.30;;;18.80;43.50;;;;;;20775;6821;123058;-79
2023/07/06 02:11:42;;;;;;;4.55;2.60;;;18.20;44.00;;;;;;20788;6821;123007;-79
2023/07/06 02:14:08;;;;;;;2.60;2.40;;;18.10;43.80;;;;;;20802;6821;123059;-79
2023/07/06 02:16:33;;;;;;;2.20;2.10;;;17.80;44.90;;;;;;20797;6821;119621;-79
2023/07/06 02:19:01;;;;;;;2.65;2.45;;;17.60;44.60;;;;;;20806;6821;117304;-79
2023/07/06 02:21:25;;;;;;;3.10;2.90;;;17.60;45.40;;;;;;20550;6821;293445;-79
2023/07/06 02:23:51;;;;;;;3.20;2.70;;;17.50;45.90;;;;;;20586;6821;307496;-79
2023/07/06 02:26:16;;;;;;;3.08;2.87;;;18.00;45.00;;;;;;20589;6821;277353;-79
2023/07/06 02:28:42;;;;;;;3.63;2.33;;;18.30;44.30;;;;;;20790;6821;117474;-79
2023/07/06 02:31:08;;;;;;;2.60;2.42;;;18.10;44.30;;;;;;20779;6821;117154;-79
2023/07/06 02:33:34;;;;;;;2.33;2.17;;;17.80;44.70;;;;;;20792;6821;122921;-78
2023/07/06 02:35:59;;;;;;;3.50;2.65;;;17.20;45.80;;;;;;20797;6821;117502;-79
2023/07/06 02:38:25;;;;;;;2.40;2.30;;;17.20;45.10;;;;;;20795;6821;118163;-79
2023/07/06 02:40:51;;;;;;;3.13;2.93;;;17.00;45.80;;;;;;20786;6821;117583;-79
2023/07/06 02:43:17;;;;;;;3.13;2.73;;;16.90;45.70;;;;;;20775;6821;119816;-79
2023/07/06 02:45:46;;;;;;;2.90;2.70;;;16.90;45.90;;;;;;20573;6821;311576;-79
2023/07/06 02:48:11;;;;;;;3.00;2.70;;;17.20;46.40;;;;;;20571;6821;312897;-79
2023/07/06 02:50:38;;;;;;;2.47;2.27;;;17.60;45.70;;;;;;20790;6821;117057;-79
2023/07/06 02:53:02;;;;;;;3.28;3.00;;;17.60;45.40;;;;;;20566;6821;280823;-79
2023/07/06 02:55:29;;;;;;;2.90;2.70;;;18.00;45.60;;;;;;20587;6821;277709;-79
2023/07/06 02:57:54;;;;;;;3.07;2.70;;;18.00;44.90;;;;;;20783;6821;117550;-79
2023/07/06 03:00:20;;;;;;;2.62;2.42;;;17.90;44.80;;;;;;20801;6819;117003;-79
2023/07/06 03:02:48;;;;;;;2.43;2.33;;;17.50;45.00;;;;;;20786;6820;120391;-79
2023/07/06 03:05:11;;;;;;;3.67;2.40;;;17.30;45.60;;;;;;20762;6820;120385;-79
2023/07/06 03:07:37;;;;;;;2.67;2.53;;;17.10;46.00;;;;;;20789;6820;122547;-78
2023/07/06 03:10:02;;;;;;;2.97;2.87;;;17.00;46.40;;;;;;20566;6820;307546;-79
2023/07/06 03:12:33;;;;;;;2.42;2.33;;;17.20;46.90;;;;;;20786;6820;123583;-79
2023/07/06 03:14:57;;;;;;;2.40;2.23;;;17.10;46.60;;;;;;20768;6820;117292;-79
2023/07/06 03:17:43;;;;;;;2.93;2.67;;;17.10;46.60;;;;;;20767;6820;117242;-79
2023/07/06 03:20:22;;;;;;;3.47;2.80;;;16.90;46.60;;;;;;20683;6739;276522;-77
2023/07/06 03:22:57;;;;;;;2.87;2.67;;;17.70;46.50;;;;;;20680;6739;313797;-79
2023/07/06 03:25:34;;;;;;;3.00;2.80;;;17.60;46.40;;;;;;20681;6727;305889;-78
2023/07/06 03:28:10;;;;;;;3.30;2.60;;;17.90;46.20;;;;;;20755;6727;117411;-78
2023/07/06 03:30:45;;;;;;;2.95;2.78;;;17.70;46.20;;;;;;20698;6731;305978;-78
2023/07/06 03:33:26;;;;;;;3.30;3.00;;;17.90;46.40;;;;;;20707;6714;310335;-79
2023/07/06 03:36:01;;;;;;;3.27;2.70;;;17.90;46.40;;;;;;20942;6714;116707;-78
2023/07/06 03:38:37;;;;;;;2.93;2.27;;;17.70;46.30;;;;;;20687;6750;117385;-81
2023/07/06 03:41:13;;;;;;;3.20;3.00;;;17.50;46.70;;;;;;20722;6719;320111;-79
2023/07/06 03:43:46;;;;;;;2.63;2.43;;;17.40;47.30;;;;;;20937;6734;117175;-79
2023/07/06 03:46:23;;;;;;;2.43;2.20;;;17.40;46.50;;;;;;20968;6730;116688;-81
2023/07/06 03:48:58;;;;;;;2.73;2.50;;;16.90;47.00;;;;;;20756;6789;117146;-81
2023/07/06 03:51:34;;;;;;;3.10;2.63;;;16.90;47.10;;;;;;20890;6760;116017;-79
2023/07/06 03:54:09;;;;;;;3.00;2.80;;;16.80;47.30;;;;;;20659;6765;306358;-78
2023/07/06 03:56:45;;;;;;;3.20;2.90;;;17.00;47.60;;;;;;20663;6758;310415;-77
2023/07/06 03:59:21;;;;;;;2.90;2.70;;;17.50;46.70;;;;;;20971;6713;119445;-77
2023/07/06 04:01:56;;;;;;;2.87;2.47;;;17.30;47.20;;;;;;20969;6727;116816;-77
2023/07/06 04:04:31;;;;;;;2.47;2.37;;;17.10;47.10;;;;;;20922;6758;67534;-77
2023/07/06 04:07:07;;;;;;;2.53;2.43;;;16.90;47.50;;;;;;20953;6742;115909;-78
2023/07/06 04:09:44;;;;;;;4.03;3.15;;;16.60;47.60;;;;;;20738;6722;305364;-78
2023/07/06 04:12:18;;;;;;;2.63;2.43;;;16.80;48.80;;;;;;20830;6755;117259;-78
2023/07/06 04:14:56;;;;;;;3.47;2.70;;;16.60;48.80;;;;;;20967;6723;66956;-82
2023/07/06 04:17:30;;;;;;;3.10;2.90;;;16.60;48.80;;;;;;20797;6744;116995;-82
2023/07/06 04:20:14;;;;;;;2.60;2.50;;;16.40;49.10;;;;;;20909;6730;116759;-82
2023/07/06 04:22:42;;;;;;;3.37;3.12;;;16.20;49.20;;;;;;20743;6730;305527;-81
2023/07/06 04:25:20;;;;;;;3.30;3.00;;;16.60;49.90;;;;;;20906;6715;119219;-80
2023/07/06 04:27:53;;;;;;;3.57;3.10;;;16.60;49.30;;;;;;20841;6724;120992;-79
2023/07/06 04:30:39;;;;;;;3.40;3.10;;;16.50;49.30;;;;;;20709;6740;308359;-80
2023/07/06 04:33:10;;;;;;;2.60;2.43;;;16.80;49.70;;;;;;20855;6757;143633;-81
2023/07/06 04:35:42;;;;;;;3.53;3.23;;;16.80;49.30;;;;;;20588;6772;308566;-81
2023/07/06 04:38:18;;;;;;;3.60;3.37;;;17.10;49.30;;;;;;20588;6747;336866;-81
2023/07/06 04:40:54;;;;;;;3.20;2.90;;;17.50;48.70;;;;;;20841;6755;120702;-77
2023/07/06 04:43:30;;;;;;;3.10;2.80;;;17.40;48.50;;;;;;20898;6745;119136;-78
2023/07/06 04:46:06;;;;;;;3.40;3.20;;;17.20;48.70;;;;;;20900;6755;116148;-78
2023/07/06 04:48:44;;;;;;;4.10;3.27;;;16.90;48.90;;;;;;20747;6727;120480;-79
2023/07/06 04:51:21;;;;;;;3.53;3.23;;;16.80;49.10;;;;;;20878;6761;117187;-79
2023/07/06 04:53:54;;;;;;;3.83;3.50;;;17.00;49.50;;;;;;20649;6736;291528;-76
2023/07/06 04:56:31;;;;;;;4.97;3.57;;;17.00;49.50;;;;;;20803;6754;116990;-75
2023/07/06 04:59:06;;;;;;;4.12;3.83;;;17.10;49.10;;;;;;20540;6762;307665;-78
2023/07/06 05:01:42;;;;;;;3.60;3.20;;;17.40;48.90;;;;;;20794;6762;123150;-75
2023/07/06 05:04:18;;;;;;;3.17;2.97;;;17.40;48.90;;;;;;20822;6759;117534;-75
2023/07/06 05:06:55;;;;;;;3.60;3.30;;;17.70;48.30;;;;;;20591;6737;278779;-76
2023/07/06 05:09:29;;;;;;;3.65;3.45;;;17.70;48.30;;;;;;20524;6771;337137;-75
2023/07/06 05:12:05;;;;;;;3.57;3.27;;;18.20;47.40;;;;;;20734;6769;117572;-75
2023/07/06 05:14:41;;;;;;;3.72;3.47;;;18.20;47.20;;;;;;20477;6792;307226;-77
2023/07/06 05:17:17;;;;;;;3.60;3.40;;;18.70;46.60;;;;;;20463;6770;303945;-78
2023/07/06 05:19:55;;;;;;;3.60;3.40;;;18.70;46.60;;;;;;20679;6744;310585;-75
2023/07/06 05:22:33;;;;;;;3.50;3.12;;;19.00;46.10;;;;;;20584;6756;306809;-74
2023/07/06 05:25:05;;;;;;;3.80;3.60;;;19.20;45.50;;;;;;20652;6740;304218;-76
2023/07/06 05:27:41;;;;;;;3.72;3.42;;;19.40;45.20;;;;;;20534;6749;324981;-77
2023/07/06 05:30:17;;;;;;;3.17;2.97;;;19.50;45.10;;;;;;20580;6772;306812;-74
2023/07/06 05:32:52;;;;;;;3.47;3.28;;;19.60;44.80;;;;;;20635;6754;335862;-76
2023/07/06 05:35:28;;;;;;;3.40;3.20;;;19.80;44.50;;;;;;20864;6746;117383;-72
2023/07/06 05:38:07;;;;;;;3.25;3.00;;;19.50;44.90;;;;;;20471;6765;281221;-76
2023/07/06 05:40:40;;;;;;;5.23;3.20;;;19.50;44.90;;;;;;20919;6726;116879;-76
2023/07/06 05:43:15;;;;;;;2.80;2.50;;;19.30;45.10;;;;;;20901;6726;123096;-75
2023/07/06 05:45:51;;;;;;;3.10;2.80;;;19.00;45.50;;;;;;20877;6741;116928;-77
2023/07/06 05:48:26;;;;;;;8.07;2.80;;;18.80;45.80;;;;;;20705;6741;117313;-77
2023/07/06 05:51:03;;;;;;;3.40;3.10;;;18.70;46.00;;;;;;20868;6741;117184;-78
2023/07/06 05:53:38;;;;;;;4.32;3.30;;;18.50;46.30;;;;;;20663;6751;309687;-76
2023/07/06 05:56:13;;;;;;;4.20;2.80;;;18.80;46.00;;;;;;20832;6752;117045;-77
2023/07/06 05:58:49;;;;;;;3.10;2.90;;;18.90;45.80;;;;;;20670;6752;117705;-77
2023/07/06 06:01:25;;;;;;;2.80;2.60;;;18.80;46.10;;;;;;20924;6732;117413;-77
2023/07/06 06:04:01;;;;;;;3.97;3.20;;;18.80;46.40;;;;;;20722;6733;338387;-77
2023/07/06 06:06:49;;;;;;;3.50;2.70;;;19.10;46.20;;;;;;20950;6733;117199;-77
2023/07/06 06:09:22;;;;;;;3.83;3.00;;;19.40;46.00;;;;;;20660;6733;305884;-77
2023/07/06 06:11:58;;;;;;;3.67;3.30;;;20.30;45.10;;;;;;20626;6748;306038;-77
2023/07/06 06:14:34;;;;;;;3.30;3.00;;;20.30;45.30;;;;;;20675;6748;315260;-77
2023/07/06 06:17:09;;;;;;;3.10;2.70;;;20.80;44.50;;;;;;20784;6748;127147;-77
2023/07/06 06:19:48;;;;;;;3.10;2.80;;;21.20;45.90;;;;;;20981;6722;117079;-76
2023/07/06 06:22:23;;;;;;;3.10;2.80;;;21.20;45.90;;;;;;20977;6722;116815;-76
2023/07/06 06:24:59;;;;;;;3.10;2.80;;;21.50;45.90;;;;;;20897;6737;116943;-76
2023/07/06 06:27:35;;;;;;;3.13;2.83;;;21.80;45.80;;;;;;20843;6733;117188;-77
2023/07/06 06:30:12;;;;;;;4.05;3.12;;;22.30;45.70;;;;;;20724;6733;279069;-77
2023/07/06 06:32:48;;;;;;;2.80;2.60;;;23.20;42.10;;;;;;20926;6734;117681;-77
2023/07/06 06:35:23;;;;;;;3.20;2.90;;;24.70;39.80;;;;;;20685;6734;305688;-78
2023/07/06 06:37:58;;;;;;;3.47;3.20;;;24.60;39.70;;;;;;20599;6724;308041;-77
2023/07/06 06:40:36;;;;;;;3.07;2.83;;;25.60;37.70;;;;;;20861;6757;117366;-76
2023/07/06 06:43:09;;;;;;;4.27;2.93;;;25.90;38.40;;;;;;20604;6764;303650;-77
2023/07/06 06:45:47;;;;;;;3.40;3.10;;;27.20;36.10;;;;;;20620;6764;294767;-77
2023/07/06 06:48:23;;;;;;;3.17;2.87;;;27.30;36.00;;;;;;20683;6759;120534;-77
2023/07/06 06:50:59;;;;;;;3.27;2.93;;;27.30;35.90;;;;;;20906;6744;117449;-77
2023/07/06 06:53:34;;;;;;;2.97;2.77;;;27.20;36.50;;;;;;20838;6743;117092;-77
2023/07/06 06:56:10;;;;;;;2.90;2.70;;;27.20;36.80;;;;;;20852;6746;123178;-77
2023/07/06 06:58:46;;;;;;;3.03;2.83;;;27.20;36.40;;;;;;20705;6746;123451;-77
2023/07/06 07:01:21;;;;;;;4.10;3.00;;;27.40;36.30;;;;;;20621;6761;306604;-78
2023/07/06 07:04:00;;;;;;;3.10;2.80;;;27.90;33.50;;;;;;20606;6759;306737;-78
2023/07/06 07:06:33;;;;;;;3.90;3.00;;;28.70;31.90;;;;;;20630;6761;329321;-77
2023/07/06 07:09:10;;;;;;;3.37;2.27;;;29.10;31.80;;;;;;20915;6738;118035;-77
2023/07/06 07:11:45;;;;;;;3.03;2.77;;;29.10;32.40;;;;;;20923;6738;117071;-76
2023/07/06 07:14:20;;;;;;;3.00;2.70;;;28.90;32.80;;;;;;20929;6738;116847;-76
2023/07/06 07:16:56;;;;;;;4.57;2.70;;;28.70;32.90;;;;;;20658;6738;313207;-76
2023/07/06 07:19:33;;;;;;;3.17;2.53;;;29.00;30.50;;;;;;20695;6738;309561;-76
2023/07/06 07:22:10;;;;;;;2.90;2.70;;;29.40;29.50;;;;;;20709;6738;305029;-76
2023/07/06 07:24:42;;;;;;;2.90;2.60;;;29.70;29.70;;;;;;20918;6738;116932;-76
2023/07/06 07:27:18;;;;;;;2.90;2.60;;;29.50;30.20;;;;;;20555;6738;301664;-76
2023/07/06 07:29:54;;;;;;;2.77;2.57;;;29.50;29.00;;;;;;20918;6738;66805;-76
2023/07/06 07:32:29;;;;;;;2.90;2.70;;;29.40;29.80;;;;;;20710;6738;309438;-78
2023/07/06 07:35:05;;;;;;;4.17;2.70;;;29.30;29.40;;;;;;20924;6738;66759;-76
2023/07/06 07:37:40;;;;;;;2.60;2.50;;;29.10;29.80;;;;;;20787;6738;117458;-76
2023/07/06 07:40:17;;;;;;;2.80;2.57;;;28.70;30.60;;;;;;20907;6735;116765;-76
2023/07/06 07:42:52;;;;;;;2.90;2.70;;;28.50;31.30;;;;;;20886;6638;68287;-80
2023/07/06 07:45:28;;;;;;;3.27;3.07;;;28.30;31.60;;;;;;20628;6766;281816;-80
2023/07/06 07:48:07;;;;;;;2.83;2.53;;;28.40;31.10;;;;;;20957;6743;115913;-80
2023/07/06 07:50:39;;;;;;;4.17;2.60;;;28.30;31.30;;;;;;20953;6752;117331;-81
2023/07/06 07:53:15;;;;;;;3.90;3.00;;;28.10;31.80;;;;;;20623;6738;278375;-80
2023/07/06 07:55:51;;;;;;;4.00;3.00;;;28.20;32.50;;;;;;20745;6738;305975;-81
2023/07/06 07:58:26;;;;;;;5.55;2.90;;;28.60;30.30;;;;;;20692;6756;305787;-80
2023/07/06 08:01:02;;;;;;;3.37;2.20;;;28.90;30.70;;;;;;20820;6762;117338;-80
2023/07/06 08:03:37;;;;;;;4.93;2.33;;;28.80;30.40;;;;;;20639;6777;117890;-80
2023/07/06 08:06:14;;;;;;;2.40;2.20;;;28.50;30.00;;;;;;20808;6756;120908;-80
2023/07/06 08:08:49;;;;;;;2.57;2.23;;;28.10;30.20;;;;;;20806;6772;117900;-80
2023/07/06 08:11:24;;;;;;;2.90;2.70;;;28.00;30.60;;;;;;20562;6763;307591;-80
2023/07/06 08:14:00;;;;;;;2.70;2.50;;;28.20;30.00;;;;;;20742;6729;117092;-79
2023/07/06 08:16:38;;;;;;;2.50;2.40;;;28.20;30.00;;;;;;20882;6735;116870;-80
2023/07/06 08:19:13;;;;;;;2.87;2.50;;;28.20;28.70;;;;;;20634;6735;276537;-79
2023/07/06 08:21:50;;;;;;;2.70;1.90;;;28.20;28.70;;;;;;20886;6739;117318;-80
2023/07/06 08:24:24;;;;;;;2.93;2.00;;;28.20;29.10;;;;;;20894;6738;118119;-79
2023/07/06 08:27:01;;;;;;;4.40;2.57;;;28.50;28.70;;;;;;20639;6741;277753;-79
2023/07/06 08:29:42;;;;;;;2.73;2.30;;;28.40;28.70;;;;;;20651;6743;305997;-79
2023/07/06 08:32:15;;;;;;;3.13;2.53;;;29.30;28.20;;;;;;20620;6759;313271;-80
2023/07/06 08:34:50;;;;;;;2.80;2.60;;;29.30;28.20;;;;;;20711;6729;280814;-80
2023/07/06 08:37:25;;;;;;;3.40;2.30;;;29.60;28.20;;;;;;20591;6762;307623;-79
2023/07/06 08:40:04;;;;;;;3.93;2.70;;;29.80;27.40;;;;;;20670;6735;306630;-79
2023/07/06 08:42:37;;;;;;;2.03;1.93;;;30.00;27.40;;;;;;20749;6769;117532;-79
2023/07/06 08:45:19;;;;;;;2.00;1.90;;;29.90;27.30;;;;;;20848;6760;117501;-79
2023/07/06 08:50:53;;;;;;;2.50;1.77;;;29.70;26.10;;;;;;21267;6487;90387;-85
2023/07/06 08:53:58;;;;;;;2.40;2.30;;;29.70;26.60;;;;;;20839;6760;117728;-76
2023/07/06 08:56:34;;;;;;;2.03;1.93;;;29.40;26.90;;;;;;21041;6683;119313;-77
2023/07/06 08:59:07;;;;;;;2.50;2.30;;;29.30;27.60;;;;;;20804;6687;308058;-77
2023/07/06 09:01:43;;;;;;;3.43;2.20;;;29.20;27.50;;;;;;21062;6677;116716;-77
2023/07/06 09:04:22;;;;;;;2.10;2.00;;;29.30;27.60;;;;;;21069;6667;116961;-76
2023/07/06 09:06:56;;;;;;;2.70;2.50;;;29.20;27.60;;;;;;20848;6688;306966;-77
2023/07/06 09:09:34;;;;;;;2.87;2.60;;;29.40;26.70;;;;;;20815;6698;276463;-77
2023/07/06 09:12:32;;;;;;;4.85;2.37;;;29.70;27.00;;;;;;20804;6685;309684;-76
2023/07/06 09:15:11;;;;;;;2.60;2.40;;;29.90;26.70;;;;;;21020;6687;118710;-77
2023/07/06 09:17:50;;;;;;;2.60;2.40;;;29.80;26.60;;;;;;20810;6694;299598;-77
2023/07/06 09:20:24;;;;;;;2.60;2.40;;;29.70;26.50;;;;;;21065;6694;121513;-77
2023/07/06 09:23:02;;;;;;;2.97;2.77;;;29.70;26.80;;;;;;20726;6694;308337;-78
2023/07/06 09:25:38;;;;;;;2.30;2.20;;;29.80;26.50;;;;;;21050;6697;116969;-78
2023/07/06 09:28:15;;;;;;;3.03;2.37;;;29.70;27.60;;;;;;21128;6674;115882;-78
2023/07/06 09:30:50;;;;;;;3.00;2.70;;;29.60;27.20;;;;;;20900;6674;303284;-78
2023/07/06 09:33:26;;;;;;;2.60;2.40;;;29.90;26.50;;;;;;20890;6741;117506;-78
2023/07/06 09:36:03;;;;;;;2.90;2.70;;;29.90;26.30;;;;;;21091;6682;115809;-79
2023/07/06 09:38:42;;;;;;;2.83;2.70;;;29.70;26.30;;;;;;21131;6682;116237;-78
2023/07/06 09:41:24;;;;;;;3.13;2.70;;;29.50;26.40;;;;;;20865;6738;306769;-79
2023/07/06 09:43:59;;;;;;;2.87;2.67;;;29.70;26.60;;;;;;20700;6683;337564;-77
2023/07/06 09:46:35;;;;;;;2.90;2.70;;;30.10;26.60;;;;;;21101;6682;117346;-77
2023/07/06 09:49:16;;;;;;;3.33;3.07;;;30.10;26.70;;;;;;20881;6667;304553;-78
2023/07/06 09:52:05;;;;;;;2.85;2.65;;;30.60;26.00;;;;;;20902;6670;332856;-78
2023/07/06 09:54:38;;;;;;;4.43;2.97;;;30.60;26.00;;;;;;20913;6683;305056;-78
2023/07/06 09:57:15;;;;;;;3.07;2.97;;;31.00;25.40;;;;;;21037;6676;117241;-78
2023/07/06 09:59:48;;;;;;;3.00;2.80;;;31.10;25.30;;;;;;20833;6742;303548;-77
2023/07/06 10:02:24;;;;;;;3.00;2.80;;;31.30;25.70;;;;;;20787;6685;290417;-77
2023/07/06 10:05:23;;;;;;;2.83;2.60;;;32.00;25.90;;;;;;20808;6686;304326;-77
2023/07/06 10:08:11;;;;;;;5.07;3.10;;;32.00;25.90;;;;;;21051;6686;116703;-77
2023/07/06 10:10:50;;;;;;;3.10;2.90;;;32.00;25.20;;;;;;21060;6686;116477;-77
2023/07/06 10:13:36;;;;;;;3.30;3.00;;;31.80;25.50;;;;;;20679;6686;333787;-77
2023/07/06 10:16:24;;;;;;;3.30;3.00;;;31.90;23.70;;;;;;20846;6686;275785;-78
2023/07/06 10:19:30;;;;;;;3.22;3.03;;;32.20;24.80;;;;;;20825;6747;278376;-77
2023/07/06 10:22:13;;;;;;;2.90;2.70;;;32.40;23.80;;;;;;20774;6691;295686;-77
2023/07/06 10:25:11;;;;;;;3.20;3.00;;;32.60;24.00;;;;;;20700;6718;339634;-77
2023/07/06 10:27:46;;;;;;;4.53;2.93;;;32.70;24.50;;;;;;20955;6718;117451;-77
2023/07/06 10:30:31;;;;;;;4.60;2.50;;;32.50;24.20;;;;;;20941;6720;122711;-77
2023/07/06 10:33:10;;;;;;;2.90;2.70;;;32.10;24.40;;;;;;20612;6720;279259;-77
2023/07/06 10:35:48;;;;;;;3.40;3.10;;;32.10;23.70;;;;;;20626;6751;309625;-77
2023/07/06 10:38:21;;;;;;;3.20;3.00;;;32.20;23.30;;;;;;20790;6698;305092;-77
2023/07/06 10:41:14;;;;;;;3.25;2.97;;;32.20;22.70;;;;;;20779;6701;332167;-76
2023/07/06 10:43:46;;;;;;;3.27;2.97;;;32.00;22.60;;;;;;20853;6701;116377;-78
2023/07/06 10:46:28;;;;;;;2.77;2.57;;;31.50;23.50;;;;;;20961;6701;116459;-78
2023/07/06 10:49:14;;;;;;;2.77;2.57;;;31.10;24.10;;;;;;20947;6712;121017;-78
2023/07/06 10:51:50;;;;;;;2.80;2.60;;;30.70;24.70;;;;;;20907;6724;117180;-76
2023/07/06 10:54:25;;;;;;;3.20;2.80;;;30.50;24.90;;;;;;20977;6714;117614;-77
2023/07/06 10:57:03;;;;;;;3.00;2.77;;;30.10;25.00;;;;;;20930;6710;116921;-77
2023/07/06 10:59:44;;;;;;;2.97;2.73;;;29.80;25.90;;;;;;20944;6712;119637;-77
2023/07/06 11:02:22;;;;;;;3.87;2.90;;;29.80;25.90;;;;;;20674;6722;308319;-77
2023/07/06 11:05:10;;;;;;;2.70;2.60;;;30.20;25.60;;;;;;21006;6685;118817;-77
2023/07/06 11:07:53;;;;;;;3.20;2.57;;;30.40;25.50;;;;;;21000;6700;116880;-77
2023/07/06 11:10:32;;;;;;;2.97;2.70;;;30.30;26.20;;;;;;20994;6712;116833;-76
2023/07/06 11:13:09;;;;;;;11.75;3.90;;;30.30;26.20;;;;;;20648;6708;342874;-79
2023/07/06 11:15:59;;;;;;;2.63;2.43;;;30.60;24.50;;;;;;20908;6736;117788;-78
2023/07/06 11:18:32;;;;;;;13.17;3.80;;;30.50;25.00;;;;;;20943;6723;117525;-77
2023/07/06 11:21:31;;;;;;;3.23;3.03;;;30.30;25.10;;;;;;20952;6717;117288;-75
2023/07/06 11:24:07;;;;;;;3.20;3.00;;;30.20;24.90;;;;;;20899;6748;66258;-79
2023/07/06 11:26:48;;;;;;;3.67;3.37;;;29.90;24.40;;;;;;20781;6706;280518;-77
2023/07/06 11:29:22;;;;;;;2.37;2.27;;;29.90;24.40;;;;;;21047;6708;117910;-83
2023/07/06 11:32:37;;;;;;;;;;;;;;;;;;;;;
2023/07/06 11:35:33;;;;;;;3.60;3.30;;;29.70;24.60;;;;;;20956;6723;117867;-85
2023/07/06 11:38:18;;;;;;;3.27;3.07;;;29.40;25.10;;;;;;20756;6786;116976;-80
2023/07/06 11:41:10;;;;;;;3.00;2.80;;;29.20;25.60;;;;;;20952;6732;117391;-78
2023/07/06 11:44:02;;;;;;;3.20;2.90;;;29.00;25.80;;;;;;20847;6722;114176;-79
2023/07/06 11:47:17;;;;;;;3.47;3.10;;;28.90;25.90;;;;;;20815;6708;309869;-79
2023/07/06 11:49:57;;;;;;;3.20;3.00;;;29.30;25.30;;;;;;19977;7049;118837;-79
2023/07/06 11:52:32;;;;;;;3.22;3.00;;;29.40;25.30;;;;;;19694;7049;319067;-79
2023/07/06 11:55:50;;;;;;;3.53;3.10;;;29.70;25.30;;;;;;20485;6756;65970;-79
2023/07/06 11:58:28;;;;;;;2.80;2.60;;;29.80;25.30;;;;;;21028;6756;116684;-79
2023/07/06 12:00:50;;;;;;;2.70;2.60;;;29.70;25.00;;;;;;21021;6756;116436;-79
2023/07/06 12:03:26;;;;;;;3.23;2.80;;;29.70;24.90;;;;;;20859;6700;120421;-80
2023/07/06 12:05:59;;;;;;;2.90;2.70;;;29.60;24.90;;;;;;21037;6700;116174;-80
2023/07/06 12:08:35;;;;;;;3.07;2.87;;;29.60;25.30;;;;;;21037;6700;115949;-79
2023/07/06 12:11:11;;;;;;;3.20;2.93;;;29.70;25.30;;;;;;21033;6700;117280;-80
2023/07/06 12:13:52;;;;;;;3.10;2.90;;;29.80;25.40;;;;;;20614;6700;278622;-80
2023/07/06 12:16:25;;;;;;;3.27;2.90;;;30.10;24.30;;;;;;21040;6700;117432;-80
2023/07/06 12:19:05;;;;;;;2.83;2.63;;;30.30;24.50;;;;;;21043;6700;116332;-80
2023/07/06 12:21:41;;;;;;;2.53;2.43;;;30.10;24.20;;;;;;21024;6700;117007;-80
2023/07/06 12:24:16;;;;;;;3.03;2.90;;;30.00;24.10;;;;;;21036;6700;116620;-80
2023/07/06 12:26:52;;;;;;;3.07;2.87;;;29.80;24.30;;;;;;21066;6582;66870;-78
2023/07/06 12:29:29;;;;;;;3.30;3.10;;;29.70;24.20;;;;;;20777;6712;275002;-79
2023/07/06 12:32:07;;;;;;;3.20;2.90;;;30.00;24.80;;;;;;20822;6690;276087;-78
2023/07/06 12:34:43;;;;;;;2.70;2.60;;;30.40;25.50;;;;;;20954;6726;116889;-81
2023/07/06 12:37:23;;;;;;;4.00;2.80;;;30.50;24.90;;;;;;20740;6714;275073;-81
2023/07/06 12:39:54;;;;;;;2.70;2.57;;;30.70;24.20;;;;;;20968;6720;116349;-79
2023/07/06 12:42:29;;;;;;;3.10;2.90;;;30.70;23.90;;;;;;20692;6720;279717;-80
2023/07/06 12:45:05;;;;;;;3.43;3.13;;;30.60;23.40;;;;;;20736;6720;305245;-79
2023/07/06 12:47:41;;;;;;;3.33;3.10;;;30.60;23.00;;;;;;20974;6710;117287;-78
2023/07/06 12:50:19;;;;;;;3.40;2.97;;;30.40;23.20;;;;;;20728;6721;281292;-78
2023/07/06 12:53:02;;;;;;;3.10;2.90;;;30.30;22.90;;;;;;20562;6712;278158;-79
2023/07/06 12:55:37;;;;;;;3.67;2.97;;;30.30;23.20;;;;;;20814;6697;303124;-79
2023/07/06 12:58:13;;;;;;;3.30;3.00;;;30.30;22.90;;;;;;20825;6701;305341;-79
2023/07/06 13:00:50;;;;;;;3.10;2.90;;;30.30;23.50;;;;;;20806;6703;277658;-79
2023/07/06 13:03:29;;;;;;;3.07;2.97;;;30.30;24.00;;;;;;20805;6721;118319;-80
2023/07/06 13:06:01;;;;;;;2.90;2.80;;;30.00;24.00;;;;;;20780;6713;308578;-79
2023/07/06 13:08:37;;;;;;;4.97;3.00;;;29.90;25.00;;;;;;20798;6731;302718;-79
2023/07/06 13:11:13;;;;;;;3.00;2.80;;;30.10;24.80;;;;;;21002;6699;116616;-79
2023/07/06 13:13:52;;;;;;;2.87;2.67;;;29.90;24.70;;;;;;20855;6699;66074;-79
2023/07/06 13:16:38;;;;;;;3.30;3.10;;;29.70;24.80;;;;;;20955;6715;120985;-78
2023/07/06 13:19:16;;;;;;;3.17;2.87;;;29.50;24.70;;;;;;20987;6715;66955;-79
2023/07/06 13:22:03;;;;;;;3.37;3.10;;;29.30;25.00;;;;;;20673;6772;303710;-79